Time,TemperatureF,DewpointF,PressureIn,WindDirection,WindDirectionDegrees,WindSpeedMPH,WindSpeedGustMPH,Humidity,HourlyPrecipIn,Conditions,Clouds,dailyrainin,SoftwareType,DateUTC
2013-08-07 00:01:00,80.0,71.0,30.03,SE,129,3.0,9.0,73,0.00,,,0.00,,2013-08-07 04:01:00,
2013-08-07 00:11:00,80.0,71.0,30.02,ESE,119,1.0,8.0,74,0.00,,,0.00,,2013-08-07 04:11:00,
2013-08-07 00:21:00,80.0,71.0,30.02,ESE,119,1.0,8.0,74,0.00,,,0.00,,2013-08-07 04:21:00,
2013-08-07 00:33:00,80.0,71.0,30.02,ESE,119,1.0,8.0,74,0.00,,,0.00,,2013-08-07 04:33:00,
2013-08-07 00:43:00,80.0,71.0,30.02,SE,125,3.0,7.0,74,0.00,,,0.00,,2013-08-07 04:43:00,
2013-08-07 00:52:00,80.0,71.0,30.02,East,86,2.0,6.0,74,0.00,,,0.00,,2013-08-07 04:52:00,
2013-08-07 01:02:00,80.0,71.0,30.02,East,86,2.0,6.0,74,0.00,,,0.00,,2013-08-07 05:02:00,
2013-08-07 01:11:00,80.0,71.0,30.02,SSE,155,3.0,9.0,75,0.00,,,0.00,,2013-08-07 05:11:00,
2013-08-07 01:22:00,80.0,71.0,30.01,SE,138,4.0,8.0,75,0.00,,,0.00,,2013-08-07 05:22:00,
2013-08-07 01:32:00,80.0,71.0,30.01,SE,138,4.0,8.0,75,0.00,,,0.00,,2013-08-07 05:32:00,
2013-08-07 01:43:00,80.0,71.0,30.01,SE,138,4.0,8.0,75,0.00,,,0.00,,2013-08-07 05:43:00,
2013-08-07 01:52:00,79.0,70.0,30.00,ESE,121,2.0,8.0,73,0.00,,,0.00,,2013-08-07 05:52:00,
2013-08-07 02:02:00,79.0,70.0,30.00,ESE,121,2.0,8.0,73,0.00,,,0.00,,2013-08-07 06:02:00,
2013-08-07 02:12:00,79.0,70.0,30.00,South,174,2.0,8.0,73,0.00,,,0.00,,2013-08-07 06:12:00,
2013-08-07 02:22:00,79.0,70.0,30.00,SE,128,3.0,7.0,74,0.00,,,0.00,,2013-08-07 06:22:00,
2013-08-07 02:32:00,79.0,70.0,30.00,SE,128,3.0,7.0,74,0.00,,,0.00,,2013-08-07 06:32:00,
2013-08-07 02:43:00,79.0,70.0,30.00,SE,133,3.0,7.0,74,0.00,,,0.00,,2013-08-07 06:43:00,
2013-08-07 02:52:00,79.0,69.0,30.00,SE,136,2.0,7.0,71,0.00,,,0.00,,2013-08-07 06:52:00,
2013-08-07 03:01:00,79.0,69.0,30.00,SE,136,2.0,7.0,71,0.00,,,0.00,,2013-08-07 07:01:00,
2013-08-07 03:12:00,79.0,69.0,30.00,SE,136,2.0,7.0,71,0.00,,,0.00,,2013-08-07 07:12:00,
2013-08-07 03:22:00,79.0,69.0,29.99,SE,138,2.0,9.0,71,0.00,,,0.00,,2013-08-07 07:22:00,
2013-08-07 03:33:00,79.0,69.0,29.99,SE,138,2.0,9.0,71,0.00,,,0.00,,2013-08-07 07:33:00,
2013-08-07 03:44:00,79.0,69.0,29.99,SE,139,3.0,7.0,72,0.00,,,0.00,,2013-08-07 07:44:00,
2013-08-07 03:53:00,79.0,70.0,29.99,SE,130,1.0,6.0,75,0.00,,,0.00,,2013-08-07 07:53:00,
2013-08-07 04:02:00,79.0,70.0,29.99,SE,130,1.0,6.0,75,0.00,,,0.00,,2013-08-07 08:02:00,
2013-08-07 04:11:00,79.0,70.0,29.99,SE,144,2.0,6.0,73,0.00,,,0.00,,2013-08-07 08:11:00,
2013-08-07 04:32:00,79.0,70.0,30.00,ESE,117,1.0,6.0,74,0.00,,,0.00,,2013-08-07 08:32:00,
2013-08-07 04:44:00,79.0,70.0,30.00,SSE,148,1.0,4.0,73,0.00,,,0.00,,2013-08-07 08:44:00,
2013-08-07 04:52:00,79.0,70.0,30.00,SSE,147,1.0,4.0,73,0.00,,,0.00,,2013-08-07 08:52:00,
2013-08-07 05:02:00,79.0,70.0,30.00,SSE,147,1.0,4.0,73,0.00,,,0.00,,2013-08-07 09:02:00,
2013-08-07 05:12:00,79.0,70.0,30.00,SSE,147,1.0,4.0,73,0.00,,,0.00,,2013-08-07 09:12:00,
2013-08-07 05:22:00,79.0,70.0,30.00,SSE,147,1.0,4.0,73,0.00,,,0.00,,2013-08-07 09:22:00,
2013-08-07 05:32:00,79.0,70.0,30.00,East,99,1.0,5.0,75,0.00,,,0.00,,2013-08-07 09:32:00,
2013-08-07 05:43:00,79.0,70.0,30.00,SE,138,1.0,4.0,73,0.00,,,0.00,,2013-08-07 09:43:00,
2013-08-07 05:54:00,79.0,70.0,30.00,ESE,111,1.0,5.0,73,0.00,,,0.00,,2013-08-07 09:54:00,
2013-08-07 06:01:00,79.0,70.0,30.00,ESE,111,1.0,5.0,73,0.00,,,0.00,,2013-08-07 10:01:00,
2013-08-07 06:32:00,79.0,70.0,30.01,ESE,123,0.0,4.0,73,0.00,,,0.00,,2013-08-07 10:32:00,
2013-08-07 06:43:00,79.0,70.0,30.02,SE,130,0.0,2.0,73,0.00,,,0.00,,2013-08-07 10:43:00,
2013-08-07 06:52:00,79.0,70.0,30.02,SSE,148,0.0,3.0,74,0.00,,,0.00,,2013-08-07 10:52:00,
2013-08-07 07:01:00,79.0,70.0,30.02,SSE,148,0.0,3.0,74,0.00,,,0.00,,2013-08-07 11:01:00,
2013-08-07 07:11:00,79.0,70.0,30.02,SSE,148,0.0,3.0,74,0.00,,,0.00,,2013-08-07 11:11:00,
2013-08-07 07:32:00,76.0,69.0,30.03,NW,304,0.0,3.0,78,0.00,,,0.00,,2013-08-07 11:32:00,
2013-08-07 07:43:00,75.0,68.0,30.03,NNW,334,0.0,3.0,80,0.00,,,0.00,,2013-08-07 11:43:00,
2013-08-07 07:53:00,75.0,68.0,30.03,NNW,334,0.0,3.0,80,0.00,,,0.00,,2013-08-07 11:53:00,
2013-08-07 08:02:00,76.0,70.0,30.03,NNW,334,0.0,3.0,82,0.00,,,0.00,,2013-08-07 12:02:00,
2013-08-07 08:11:00,76.0,70.0,30.03,NNW,327,0.0,3.0,83,0.00,,,0.00,,2013-08-07 12:11:00,
2013-08-07 08:33:00,76.0,70.0,30.03,NW,313,0.0,5.0,83,0.00,,,0.00,,2013-08-07 12:33:00,
2013-08-07 08:43:00,78.0,72.0,30.03,NNE,18,0.0,3.0,82,0.00,,,0.00,,2013-08-07 12:43:00,
2013-08-07 08:52:00,78.0,72.0,30.03,NNE,18,0.0,3.0,82,0.00,,,0.00,,2013-08-07 12:52:00,
2013-08-07 09:12:00,81.0,72.0,30.03,SE,135,0.0,3.0,73,0.00,,,0.00,,2013-08-07 13:12:00,
2013-08-07 09:32:00,82.0,72.0,30.04,ESE,121,0.0,4.0,71,0.00,,,0.00,,2013-08-07 13:32:00,
2013-08-07 09:44:00,82.0,72.0,30.04,SSE,162,0.0,3.0,72,0.00,,,0.00,,2013-08-07 13:44:00,
2013-08-07 09:53:00,83.0,72.0,30.04,East,95,0.0,3.0,69,0.00,,,0.00,,2013-08-07 13:53:00,
2013-08-07 10:02:00,83.0,72.0,30.04,East,95,0.0,3.0,69,0.00,,,0.00,,2013-08-07 14:02:00,
2013-08-07 10:12:00,84.0,74.0,30.04,ESE,122,0.0,8.0,72,0.00,,,0.00,,2013-08-07 14:12:00,
2013-08-07 10:33:00,85.0,74.0,30.04,SE,145,1.0,4.0,69,0.00,,,0.00,,2013-08-07 14:33:00,
2013-08-07 10:43:00,85.0,73.0,30.04,East,101,1.0,5.0,68,0.00,,,0.00,,2013-08-07 14:43:00,
2013-08-07 11:02:00,85.0,73.0,30.05,East,92,0.0,3.0,68,0.00,,,0.00,,2013-08-07 15:02:00,
2013-08-07 11:13:00,86.0,74.0,30.04,SE,129,1.0,4.0,67,0.00,,,0.00,,2013-08-07 15:13:00,
2013-08-07 11:33:00,86.0,73.0,30.05,East,91,1.0,4.0,66,0.00,,,0.00,,2013-08-07 15:33:00,
2013-08-07 11:43:00,85.0,73.0,30.05,NE,42,1.0,4.0,67,0.00,,,0.00,,2013-08-07 15:43:00,
2013-08-07 11:53:00,84.0,73.0,30.05,ENE,69,1.0,6.0,69,0.00,,,0.00,,2013-08-07 15:53:00,
2013-08-07 12:02:00,84.0,73.0,30.05,ENE,69,1.0,6.0,69,0.00,,,0.00,,2013-08-07 16:02:00,
2013-08-07 12:11:00,85.0,73.0,30.05,East,90,0.0,4.0,68,0.00,,,0.00,,2013-08-07 16:11:00,
2013-08-07 12:22:00,85.0,73.0,30.05,East,90,0.0,4.0,68,0.00,,,0.00,,2013-08-07 16:22:00,
2013-08-07 12:33:00,85.0,72.0,30.05,NNE,19,1.0,4.0,66,0.00,,,0.00,,2013-08-07 16:33:00,
2013-08-07 12:43:00,86.0,73.0,30.05,ENE,75,1.0,4.0,65,0.00,,,0.00,,2013-08-07 16:43:00,
2013-08-07 12:53:00,86.0,72.0,30.05,East,86,0.0,3.0,64,0.00,,,0.00,,2013-08-07 16:53:00,
2013-08-07 13:02:00,86.0,72.0,30.05,East,86,0.0,3.0,64,0.00,,,0.00,,2013-08-07 17:02:00,
2013-08-07 13:11:00,86.0,72.0,30.05,East,86,0.0,3.0,64,0.00,,,0.00,,2013-08-07 17:11:00,
2013-08-07 13:22:00,86.0,72.0,30.05,East,86,0.0,3.0,64,0.00,,,0.00,,2013-08-07 17:22:00,
2013-08-07 13:33:00,87.0,73.0,30.05,ENE,63,1.0,4.0,64,0.00,,,0.00,,2013-08-07 17:33:00,
2013-08-07 13:43:00,86.0,74.0,30.05,SSE,161,4.0,9.0,68,0.00,,,0.00,,2013-08-07 17:43:00,
2013-08-07 13:52:00,80.0,73.0,30.05,ESE,121,6.0,12.0,80,0.00,,,0.00,,2013-08-07 17:52:00,
2013-08-07 14:02:00,80.0,73.0,30.05,ESE,121,6.0,12.0,80,0.00,,,0.00,,2013-08-07 18:02:00,
2013-08-07 14:22:00,78.0,74.0,30.05,SE,129,4.0,8.0,87,0.00,,,0.00,,2013-08-07 18:22:00,
2013-08-07 14:32:00,77.0,74.0,30.05,SE,138,3.0,7.0,89,0.01,,,0.01,,2013-08-07 18:32:00,
2013-08-07 14:43:00,77.0,74.0,30.05,SE,138,3.0,7.0,89,0.01,,,0.01,,2013-08-07 18:43:00,
2013-08-07 14:52:00,77.0,73.0,30.05,ESE,113,2.0,11.0,88,0.01,,,0.01,,2013-08-07 18:52:00,
2013-08-07 15:01:00,77.0,73.0,30.05,ESE,113,2.0,11.0,88,0.01,,,0.01,,2013-08-07 19:01:00,
2013-08-07 15:11:00,78.0,73.0,30.04,ESE,120,4.0,9.0,84,0.01,,,0.01,,2013-08-07 19:11:00,
2013-08-07 15:22:00,78.0,73.0,30.04,ESE,120,4.0,9.0,84,0.01,,,0.01,,2013-08-07 19:22:00,
2013-08-07 15:32:00,79.0,74.0,30.03,East,92,1.0,7.0,84,0.00,,,0.01,,2013-08-07 19:32:00,
2013-08-07 15:52:00,79.0,73.0,30.03,ENE,71,0.0,5.0,81,0.00,,,0.01,,2013-08-07 19:52:00,
2013-08-07 16:02:00,79.0,73.0,30.03,ENE,71,0.0,5.0,81,0.00,,,0.01,,2013-08-07 20:02:00,
2013-08-07 16:33:00,82.0,72.0,30.01,NNE,15,0.0,3.0,73,0.00,,,0.01,,2013-08-07 20:33:00,
2013-08-07 16:52:00,83.0,74.0,30.01,SE,142,0.0,4.0,75,0.00,,,0.01,,2013-08-07 20:52:00,
2013-08-07 17:01:00,83.0,74.0,30.01,North,9,0.0,3.0,75,0.00,,,0.01,,2013-08-07 21:01:00,
2013-08-07 17:11:00,83.0,74.0,30.01,East,99,0.0,2.0,75,0.00,,,0.01,,2013-08-07 21:11:00,
2013-08-07 17:32:00,83.0,75.0,30.01,ESE,103,0.0,3.0,76,0.00,,,0.01,,2013-08-07 21:32:00,
2013-08-07 17:43:00,83.0,75.0,30.01,SE,124,0.0,2.0,76,0.00,,,0.01,,2013-08-07 21:43:00,
2013-08-07 18:01:00,83.0,75.0,30.00,SSE,147,0.0,3.0,77,0.00,,,0.01,,2013-08-07 22:01:00,
2013-08-07 18:22:00,83.0,75.0,30.00,ESE,113,0.0,3.0,78,0.00,,,0.01,,2013-08-07 22:22:00,
2013-08-07 18:52:00,85.0,76.0,29.99,North,11,0.0,3.0,75,0.00,,,0.01,,2013-08-07 22:52:00,
2013-08-07 19:01:00,84.0,76.0,29.99,SE,138,0.0,2.0,76,0.00,,,0.01,,2013-08-07 23:01:00,
2013-08-07 19:11:00,85.0,77.0,29.99,SE,138,0.0,3.0,76,0.00,,,0.01,,2013-08-07 23:11:00,
2013-08-07 19:22:00,85.0,77.0,29.99,SE,138,0.0,3.0,76,0.00,,,0.01,,2013-08-07 23:22:00,
2013-08-07 19:32:00,84.0,76.0,29.99,ESE,104,0.0,3.0,77,0.00,,,0.01,,2013-08-07 23:32:00,
2013-08-07 19:43:00,83.0,75.0,29.99,SE,144,0.0,3.0,78,0.00,,,0.01,,2013-08-07 23:43:00,
2013-08-07 19:52:00,83.0,75.0,29.99,SE,144,0.0,3.0,78,0.00,,,0.01,,2013-08-07 23:52:00,
2013-08-07 20:01:00,82.0,75.0,29.99,ESE,113,0.0,3.0,79,0.00,,,0.01,,2013-08-08 00:01:00,
2013-08-07 20:11:00,82.0,75.0,29.99,SE,130,0.0,3.0,80,0.00,,,0.01,,2013-08-08 00:11:00,
2013-08-07 20:22:00,82.0,75.0,29.99,SE,130,0.0,3.0,80,0.00,,,0.01,,2013-08-08 00:22:00,
2013-08-07 20:43:00,80.0,74.0,29.99,ESE,115,0.0,4.0,82,0.00,,,0.01,,2013-08-08 00:43:00,
2013-08-07 20:52:00,80.0,74.0,29.99,ESE,115,0.0,4.0,82,0.00,,,0.01,,2013-08-08 00:52:00,
2013-08-07 21:02:00,80.0,74.0,29.99,SE,137,1.0,5.0,82,0.00,,,0.01,,2013-08-08 01:02:00,
2013-08-07 21:11:00,80.0,74.0,29.99,SE,137,1.0,5.0,82,0.00,,,0.01,,2013-08-08 01:11:00,
2013-08-07 21:22:00,80.0,74.0,29.99,SE,130,0.0,5.0,82,0.00,,,0.01,,2013-08-08 01:22:00,
2013-08-07 21:32:00,80.0,74.0,29.99,ESE,122,1.0,4.0,82,0.00,,,0.01,,2013-08-08 01:32:00,
2013-08-07 21:43:00,80.0,74.0,29.99,ESE,122,1.0,4.0,82,0.00,,,0.01,,2013-08-08 01:43:00,
2013-08-07 21:53:00,80.0,74.0,30.00,East,90,0.0,3.0,83,0.00,,,0.01,,2013-08-08 01:53:00,
2013-08-07 22:02:00,80.0,74.0,30.00,East,90,0.0,3.0,83,0.00,,,0.01,,2013-08-08 02:02:00,
2013-08-07 22:22:00,80.0,74.0,30.01,ESE,118,0.0,2.0,82,0.00,,,0.01,,2013-08-08 02:22:00,
2013-08-07 22:32:00,80.0,74.0,30.01,ESE,119,0.0,2.0,82,0.00,,,0.01,,2013-08-08 02:32:00,
2013-08-07 22:43:00,80.0,74.0,30.01,ESE,110,0.0,2.0,82,0.00,,,0.01,,2013-08-08 02:43:00,
2013-08-07 22:52:00,80.0,74.0,30.01,ESE,110,0.0,2.0,82,0.00,,,0.01,,2013-08-08 02:52:00,
2013-08-07 23:02:00,80.0,74.0,30.02,East,94,0.0,1.0,83,0.00,,,0.01,,2013-08-08 03:02:00,
2013-08-07 23:12:00,80.0,75.0,30.01,East,94,0.0,2.0,84,0.00,,,0.01,,2013-08-08 03:12:00,
2013-08-07 23:22:00,80.0,75.0,30.01,East,94,0.0,2.0,84,0.00,,,0.01,,2013-08-08 03:22:00,
2013-08-07 23:32:00,80.0,75.0,30.01,ESE,109,0.0,2.0,84,0.00,,,0.01,,2013-08-08 03:32:00,
2013-08-07 23:43:00,80.0,75.0,30.02,ESE,116,0.0,3.0,84,0.00,,,0.01,,2013-08-08 03:43:00,
2013-08-07 23:52:00,80.0,75.0,30.02,ESE,116,0.0,3.0,84,0.00,,,0.01,,2013-08-08 03:52:00,